createdAt,value
2018-03-24T00:00:21.721Z," 6.24"
2018-03-24T00:05:17.458Z," 6.24"
2018-03-24T00:10:13.026Z," 6.20"
2018-03-24T00:15:09.681Z," 6.14"
2018-03-24T00:20:08.911Z," 5.99"
2018-03-24T00:25:04.193Z," 5.99"
2018-03-24T00:29:59.967Z," 5.93"
2018-03-24T00:34:59.642Z," 6.02"
2018-03-24T00:39:54.402Z," 5.98"
2018-03-24T00:44:53.903Z," 5.89"
2018-03-24T00:49:52.479Z," 5.61"
2018-03-24T00:54:47.167Z," 5.25"
2018-03-24T00:59:42.586Z," 4.94"
2018-03-24T01:04:43.028Z," 4.84"
2018-03-24T01:09:37.767Z," 4.67"
2018-03-24T01:14:33.277Z," 4.55"
2018-03-24T01:19:32.801Z," 4.78"
2018-03-24T01:24:27.503Z," 4.87"
2018-03-24T01:29:23.360Z," 4.93"
2018-03-24T01:34:19.103Z," 4.90"
2018-03-24T01:39:14.898Z," 4.99"
2018-03-24T01:44:15.614Z," 4.99"
2018-03-24T01:49:10.288Z," 5.12"
2018-03-24T01:54:07.131Z," 5.02"
2018-03-24T01:59:06.406Z," 4.94"
2018-03-24T02:04:01.150Z," 4.93"
2018-03-24T02:08:56.918Z," 4.93"
2018-03-24T02:13:52.735Z," 4.82"
2018-03-24T02:18:52.327Z," 4.66"
2018-03-24T02:23:48.173Z," 4.71"
2018-03-24T02:28:43.519Z," 4.67"
2018-03-24T02:33:43.302Z," 4.70"
2018-03-24T02:38:39.164Z," 4.70"
2018-03-24T02:43:34.702Z," 4.50"
2018-03-24T02:48:30.242Z," 4.41"
2018-03-24T02:53:25.699Z," 4.44"
2018-03-24T02:58:21.530Z," 4.52"
2018-03-24T03:03:18.015Z," 4.41"
2018-03-24T03:08:17.479Z," 4.52"
2018-03-24T03:13:14.108Z," 4.52"
2018-03-24T03:18:11.611Z," 4.42"
2018-03-24T03:23:06.661Z," 4.32"
2018-03-24T03:28:02.746Z," 4.20"
2018-03-24T03:32:58.497Z," 4.19"
2018-03-24T03:37:55.161Z," 4.41"
2018-03-24T03:42:51.671Z," 4.35"
2018-03-24T03:47:52.812Z," 4.40"
2018-03-24T03:52:52.092Z," 4.23"
2018-03-24T03:57:50.226Z," 4.22"
2018-03-24T04:02:49.248Z," 4.23"
2018-03-24T04:07:43.874Z," 4.30"
2018-03-24T04:12:40.466Z," 4.24"
2018-03-24T04:17:40.858Z," 4.20"
2018-03-24T04:22:36.576Z," 4.05"
2018-03-24T04:27:32.740Z," 4.04"
2018-03-24T04:32:28.922Z," 3.98"
2018-03-24T04:37:28.755Z," 3.92"
2018-03-24T04:42:23.528Z," 3.98"
2018-03-24T04:47:22.717Z," 4.02"
2018-03-24T04:52:19.232Z," 4.04"
2018-03-24T04:57:18.375Z," 3.92"
2018-03-24T05:02:18.014Z," 3.83"
2018-03-24T05:07:12.606Z," 3.78"
2018-03-24T05:12:09.221Z," 3.87"
2018-03-24T05:17:04.578Z," 3.74"
2018-03-24T05:22:01.082Z," 3.84"
2018-03-24T05:26:56.633Z," 3.81"
2018-03-24T05:31:53.386Z," 3.84"
2018-03-24T05:36:48.808Z," 3.87"
2018-03-24T05:41:49.705Z," 3.94"
2018-03-24T05:46:44.647Z," 3.98"
2018-03-24T05:51:44.306Z," 3.87"
2018-03-24T05:56:39.126Z," 3.99"
2018-03-24T06:01:38.742Z," 4.04"
2018-03-24T06:06:33.807Z," 4.12"
2018-03-24T06:11:30.506Z," 4.31"
2018-03-24T06:16:26.037Z," 4.52"
2018-03-24T06:21:22.286Z," 4.74"
2018-03-24T06:26:23.215Z," 4.93"
2018-03-24T06:31:17.952Z," 5.10"
2018-03-24T06:36:15.614Z," 5.29"
2018-03-24T06:41:11.509Z," 5.47"
2018-03-24T06:46:07.988Z," 5.89"
2018-03-24T06:51:03.736Z," 5.59"
2018-03-24T06:56:03.167Z," 5.69"
2018-03-24T07:01:01.755Z," 5.69"
2018-03-24T07:06:00.484Z," 5.86"
2018-03-24T07:10:55.205Z," 6.08"
2018-03-24T07:15:54.935Z," 5.98"
2018-03-24T07:20:50.132Z," 6.07"
2018-03-24T07:25:50.827Z," 6.14"
2018-03-24T07:30:45.671Z," 6.38"
2018-03-24T07:35:41.719Z," 6.79"
2018-03-24T07:40:38.213Z," 6.75"
2018-03-24T07:45:34.222Z," 7.15"
2018-03-24T07:50:30.921Z," 7.69"
2018-03-24T07:55:27.650Z," 7.88"
2018-03-24T08:05:24.384Z," 8.88"
2018-03-24T08:10:20.688Z," 9.31"
2018-03-24T08:15:21.735Z," 9.62"
2018-03-24T08:20:17.423Z," 9.14"
2018-03-24T08:25:18.000Z," 9.10"
2018-03-24T08:30:13.209Z," 9.18"
2018-03-24T08:35:12.179Z," 9.02"
2018-03-24T08:40:07.291Z," 8.92"
2018-03-24T08:45:07.801Z," 8.84"
2018-03-24T08:50:03.372Z," 9.11"
2018-03-24T08:55:02.757Z," 9.18"
2018-03-24T08:59:58.540Z," 9.14"
2018-03-24T09:04:54.158Z," 9.10"
2018-03-24T09:09:50.958Z," 9.04"
2018-03-24T09:14:46.577Z," 8.91"
2018-03-24T09:19:46.429Z," 9.41"
2018-03-24T09:24:41.277Z," 9.72"
2018-03-24T09:29:37.150Z," 9.98"
2018-03-24T09:34:33.100Z,10.02
2018-03-24T09:39:32.894Z,10.26
2018-03-24T09:44:27.859Z,10.48
2018-03-24T09:49:23.893Z,10.84
2018-03-24T09:54:19.892Z,10.61
2018-03-24T09:59:20.140Z,10.96
2018-03-24T10:04:15.619Z,11.05
2018-03-24T10:09:15.250Z,11.60
2018-03-24T10:14:11.262Z,11.59
2018-03-24T10:19:07.118Z,11.57
2018-03-24T10:24:07.889Z,12.21
2018-03-24T10:29:03.224Z,12.62
2018-03-24T10:34:04.277Z,12.73
2018-03-24T10:38:59.413Z,12.61
2018-03-24T10:43:56.355Z,12.47
2018-03-24T10:48:52.190Z,12.93
2018-03-24T10:53:48.954Z,13.03
2018-03-24T10:58:45.340Z,13.59
2018-03-24T11:03:42.537Z,13.86
2018-03-24T11:08:38.785Z,13.74
2018-03-24T11:13:36.997Z,13.86
2018-03-24T11:18:32.794Z,14.32
2018-03-24T11:23:29.205Z,14.20
2018-03-24T11:28:29.111Z,14.62
2018-03-24T11:33:30.340Z,14.32
2018-03-24T11:38:30.591Z,15.25
2018-03-24T11:43:25.179Z,14.35
2018-03-24T11:48:20.823Z,14.47
2018-03-24T11:53:17.260Z,15.10
2018-03-24T11:58:17.773Z,14.54
2018-03-24T12:03:10.787Z,13.22
2018-03-24T12:08:06.850Z,13.71
2018-03-24T12:13:07.335Z,13.13
2018-03-24T12:18:05.245Z,12.67
2018-03-24T12:23:05.409Z,12.50
2018-03-24T12:28:05.488Z,12.42
2018-03-24T12:33:01.070Z,12.29
2018-03-24T12:37:57.439Z,12.31
2018-03-24T12:42:57.928Z,12.31
2018-03-24T12:47:53.649Z,12.36
2018-03-24T12:52:49.948Z,12.42
2018-03-24T12:57:45.814Z,12.25
2018-03-24T13:02:41.523Z,12.18
2018-03-24T13:07:38.238Z,11.48
2018-03-24T13:12:33.707Z,11.48
2018-03-24T13:17:31.116Z,12.07
2018-03-24T13:22:27.008Z,12.45
2018-03-24T13:27:27.108Z,12.61
2018-03-24T13:32:23.237Z,12.70
2018-03-24T13:37:18.975Z,12.78
2018-03-24T13:42:16.313Z,12.75
2018-03-24T13:47:11.737Z,12.58
2018-03-24T13:52:07.336Z,12.00
2018-03-24T13:57:07.120Z,12.04
2018-03-24T14:02:05.949Z,12.32
2018-03-24T14:07:00.991Z,11.87
2018-03-24T14:11:56.691Z,12.24
2018-03-24T14:16:56.826Z,12.27
2018-03-24T14:21:52.089Z,12.35
2018-03-24T14:26:47.839Z,12.43
2018-03-24T14:31:43.476Z,12.17
2018-03-24T14:36:39.106Z,12.00
2018-03-24T14:41:35.816Z,11.70
2018-03-24T14:46:31.277Z,11.80
2018-03-24T14:51:26.910Z,11.62
2018-03-24T14:56:22.560Z,11.73
2018-03-24T15:01:18.138Z,11.88
2018-03-24T15:06:17.915Z,11.66
2018-03-24T15:11:13.022Z,11.55
2018-03-24T15:16:08.678Z,11.57
2018-03-24T15:21:05.524Z,11.75
2018-03-24T15:26:00.758Z,11.83
2018-03-24T15:31:00.228Z,11.66
2018-03-24T15:35:55.198Z,11.32
2018-03-24T15:40:54.641Z,11.45
2018-03-24T15:45:49.825Z,11.36
2018-03-24T15:50:45.405Z,11.41
2018-03-24T15:55:41.208Z,11.51
2018-03-24T16:00:37.179Z,11.19
2018-03-24T16:05:32.925Z,11.30
2018-03-24T16:10:29.300Z,11.32
2018-03-24T16:15:25.012Z,11.17
2018-03-24T16:20:21.646Z,11.00
2018-03-24T16:25:21.232Z,10.94
2018-03-24T16:30:19.829Z,10.96
2018-03-24T16:35:18.597Z,10.90
2018-03-24T16:40:13.532Z,10.90
2018-03-24T16:45:09.167Z,10.79
2018-03-24T16:50:04.845Z,10.92
2018-03-24T16:55:01.855Z,10.72
2018-03-24T17:00:02.041Z,10.71
2018-03-24T17:04:56.648Z,10.67
2018-03-24T17:09:52.434Z,10.64
2018-03-24T17:14:47.917Z,10.56
2018-03-24T17:19:44.551Z,10.57
2018-03-24T17:24:43.927Z,10.59
2018-03-24T17:29:38.665Z,10.49
2018-03-24T17:34:34.340Z,10.44
2018-03-24T17:39:30.085Z,10.42
2018-03-24T17:44:29.715Z,10.25
2018-03-24T17:49:28.462Z,10.15
2018-03-24T17:54:27.324Z,10.07
2018-03-24T17:59:26.283Z,10.09
2018-03-24T18:04:26.060Z," 9.91"
2018-03-24T18:09:20.385Z," 9.94"
2018-03-24T18:14:20.944Z," 9.83"
2018-03-24T18:19:17.560Z," 9.77"
2018-03-24T18:24:16.604Z," 9.55"
2018-03-24T18:29:11.660Z," 9.43"
2018-03-24T18:34:08.167Z," 9.37"
2018-03-24T18:39:03.581Z," 9.26"
2018-03-24T18:43:59.203Z," 9.14"
2018-03-24T18:48:58.885Z," 9.16"
2018-03-24T18:53:53.676Z," 8.99"
2018-03-24T18:58:50.971Z," 8.88"
2018-03-24T19:03:48.382Z," 8.81"
2018-03-24T19:08:43.861Z," 8.73"
2018-03-24T19:13:40.284Z," 8.84"
2018-03-24T19:18:39.656Z," 8.74"
2018-03-24T19:23:39.797Z," 8.63"
2018-03-24T19:28:34.510Z," 8.51"
2018-03-24T19:33:30.555Z," 8.53"
2018-03-24T19:38:31.004Z," 8.33"
2018-03-24T19:43:25.827Z," 8.23"
2018-03-24T19:48:26.370Z," 8.20"
2018-03-24T19:53:24.946Z," 8.08"
2018-03-24T19:58:19.786Z," 8.03"
2018-03-24T20:03:19.311Z," 7.95"
2018-03-24T20:08:14.338Z," 7.87"
2018-03-24T20:13:13.897Z," 7.69"
2018-03-24T20:18:12.667Z," 7.66"
2018-03-24T20:23:11.830Z," 7.67"
2018-03-24T20:28:11.748Z," 7.72"
2018-03-24T20:33:06.331Z," 7.60"
2018-03-24T20:38:03.895Z," 7.60"
2018-03-24T20:43:03.161Z," 7.53"
2018-03-24T20:47:57.841Z," 7.42"
2018-03-24T20:52:53.548Z," 7.33"
2018-03-24T20:57:53.955Z," 7.20"
2018-03-24T21:02:52.267Z," 7.14"
2018-03-24T21:07:47.260Z," 7.07"
2018-03-24T21:12:42.913Z," 7.03"
2018-03-24T21:17:38.568Z," 7.03"
2018-03-24T21:22:39.106Z," 6.96"
2018-03-24T21:27:37.836Z," 6.85"
2018-03-24T21:32:32.354Z," 6.84"
2018-03-24T21:37:33.491Z," 6.99"
2018-03-24T21:42:28.859Z," 6.93"
2018-03-24T21:47:24.432Z," 6.72"
2018-03-24T21:52:23.957Z," 6.49"
2018-03-24T21:57:19.326Z," 6.79"
2018-03-24T22:02:18.878Z," 6.62"
2018-03-24T22:07:17.763Z," 6.69"
2018-03-24T22:12:17.353Z," 6.69"
2018-03-24T22:17:15.821Z," 6.56"
2018-03-24T22:22:11.198Z," 6.51"
2018-03-24T22:27:07.135Z," 6.44"
2018-03-24T22:32:03.791Z," 6.31"
2018-03-24T22:37:04.320Z," 6.39"
2018-03-24T22:41:59.919Z," 6.33"
2018-03-24T22:46:55.234Z," 6.14"
2018-03-24T22:51:51.892Z," 6.36"
2018-03-24T22:56:47.210Z," 6.41"
2018-03-24T23:01:44.020Z," 6.28"
2018-03-24T23:06:42.865Z," 6.27"
2018-03-24T23:11:42.900Z," 6.26"
2018-03-24T23:16:41.641Z," 6.16"
2018-03-24T23:21:40.924Z," 6.42"
2018-03-24T23:26:36.859Z," 6.36"
2018-03-24T23:31:32.186Z," 6.08"
2018-03-24T23:36:27.840Z," 6.27"
2018-03-24T23:41:24.863Z," 6.33"
2018-03-24T23:46:20.142Z," 6.22"
2018-03-24T23:51:15.842Z," 6.09"
2018-03-24T23:56:11.718Z," 5.69"
